sensor_id;sensor_type;location;lat;lon;timestamp;pressure;altitude;pressure_sealevel;temperature;humidity
75455;BME280;64035;48.358;2.122;2022-12-15T00:01:02;99697.97;;;1.90;81.36
75455;BME280;64035;48.358;2.122;2022-12-15T00:02:21;99700.59;;;1.91;81.34
75455;BME280;64035;48.358;2.122;2022-12-15T00:03:44;99703.13;;;1.91;81.22
75455;BME280;64035;48.358;2.122;2022-12-15T00:05:03;99700.50;;;1.90;81.12
75455;BME280;64035;48.358;2.122;2022-12-15T00:06:22;99701.13;;;1.87;81.28
75455;BME280;64035;48.358;2.122;2022-12-15T00:07:41;99705.41;;;1.88;80.85
75455;BME280;64035;48.358;2.122;2022-12-15T00:08:59;99702.69;;;1.85;80.90
75455;BME280;64035;48.358;2.122;2022-12-15T00:10:19;99703.59;;;1.86;80.86
75455;BME280;64035;48.358;2.122;2022-12-15T00:11:38;99687.13;;;1.79;80.86
75455;BME280;64035;48.358;2.122;2022-12-15T00:12:57;99698.31;;;1.83;81.09
75455;BME280;64035;48.358;2.122;2022-12-15T00:14:16;99690.63;;;1.81;81.08
75455;BME280;64035;48.358;2.122;2022-12-15T00:15:35;99693.16;;;1.81;81.19
75455;BME280;64035;48.358;2.122;2022-12-15T00:16:54;99694.91;;;1.82;80.88
75455;BME280;64035;48.358;2.122;2022-12-15T00:18:13;99690.63;;;1.81;81.25
75455;BME280;64035;48.358;2.122;2022-12-15T00:19:32;99690.44;;;1.78;80.77
75455;BME280;64035;48.358;2.122;2022-12-15T00:20:56;99696.34;;;1.79;81.13
75455;BME280;64035;48.358;2.122;2022-12-15T00:22:15;99697.22;;;1.79;80.77
75455;BME280;64035;48.358;2.122;2022-12-15T00:23:34;99702.28;;;1.79;80.91
75455;BME280;64035;48.358;2.122;2022-12-15T00:24:53;99695.34;;;1.77;80.79
75455;BME280;64035;48.358;2.122;2022-12-15T00:26:12;99699.63;;;1.78;80.99
75455;BME280;64035;48.358;2.122;2022-12-15T00:27:31;99702.28;;;1.79;81.33
75455;BME280;64035;48.358;2.122;2022-12-15T00:28:50;99712.38;;;1.79;80.75
75455;BME280;64035;48.358;2.122;2022-12-15T00:30:09;99713.91;;;1.77;81.07
75455;BME280;64035;48.358;2.122;2022-12-15T00:31:28;99714.66;;;1.76;80.95
75455;BME280;64035;48.358;2.122;2022-12-15T00:32:48;99729.03;;;1.77;80.48
75455;BME280;64035;48.358;2.122;2022-12-15T00:34:08;99724.63;;;1.75;80.96
75455;BME280;64035;48.358;2.122;2022-12-15T00:35:27;99734.72;;;1.75;80.88
75455;BME280;64035;48.358;2.122;2022-12-15T00:36:45;99745.69;;;1.75;80.87
75455;BME280;64035;48.358;2.122;2022-12-15T00:38:12;99745.50;;;1.72;80.59
75455;BME280;64035;48.358;2.122;2022-12-15T00:39:31;99744.63;;;1.72;80.67
75455;BME280;64035;48.358;2.122;2022-12-15T00:40:31;99755.66;;;1.74;80.68
75455;BME280;64035;48.358;2.122;2022-12-15T00:41:32;99745.50;;;1.72;80.67
75455;BME280;64035;48.358;2.122;2022-12-15T00:42:32;99738.56;;;1.70;80.73
75455;BME280;64035;48.358;2.122;2022-12-15T00:43:34;99740.97;;;1.68;80.73
75455;BME280;64035;48.358;2.122;2022-12-15T00:44:35;99746.16;;;1.70;81.15
75455;BME280;64035;48.358;2.122;2022-12-15T00:45:37;99745.25;;;1.69;80.62
75455;BME280;64035;48.358;2.122;2022-12-15T00:47:04;99748.56;;;1.68;80.90
75455;BME280;64035;48.358;2.122;2022-12-15T00:48:04;99745.25;;;1.69;80.45
75455;BME280;64035;48.358;2.122;2022-12-15T00:49:05;99741.66;;;1.66;80.82
75455;BME280;64035;48.358;2.122;2022-12-15T00:50:25;99741.75;;;1.67;80.54
75455;BME280;64035;48.358;2.122;2022-12-15T00:51:44;99733.31;;;1.67;80.64
75455;BME280;64035;48.358;2.122;2022-12-15T00:53:03;99733.22;;;1.65;80.77
75455;BME280;64035;48.358;2.122;2022-12-15T00:54:22;99725.53;;;1.64;80.78
75455;BME280;64035;48.358;2.122;2022-12-15T00:55:41;99716.09;;;1.61;80.50
75455;BME280;64035;48.358;2.122;2022-12-15T00:57:00;99719.63;;;1.63;81.03
75455;BME280;64035;48.358;2.122;2022-12-15T00:58:19;99722.03;;;1.62;80.81
75455;BME280;64035;48.358;2.122;2022-12-15T00:59:38;99723.78;;;1.63;80.67
75455;BME280;64035;48.358;2.122;2022-12-15T01:00:57;99721.13;;;1.61;80.97
75455;BME280;64035;48.358;2.122;2022-12-15T01:02:16;99720.38;;;1.62;80.26
75455;BME280;64035;48.358;2.122;2022-12-15T01:03:35;99722.03;;;1.62;80.93
75455;BME280;64035;48.358;2.122;2022-12-15T01:04:54;99727.06;;;1.62;80.93
75455;BME280;64035;48.358;2.122;2022-12-15T01:06:16;99731.22;;;1.61;80.71
75455;BME280;64035;48.358;2.122;2022-12-15T01:07:35;99737.78;;;1.59;80.60
75455;BME280;64035;48.358;2.122;2022-12-15T01:08:55;99738.78;;;1.61;80.55
75455;BME280;64035;48.358;2.122;2022-12-15T01:10:14;99737.16;;;1.62;80.80
75455;BME280;64035;48.358;2.122;2022-12-15T01:11:33;99736.28;;;1.61;80.57
75455;BME280;64035;48.358;2.122;2022-12-15T01:12:52;99726.94;;;1.60;80.51
75455;BME280;64035;48.358;2.122;2022-12-15T01:14:11;99720.94;;;1.58;80.51
75455;BME280;64035;48.358;2.122;2022-12-15T01:15:30;99721.69;;;1.57;80.30
75455;BME280;64035;48.358;2.122;2022-12-15T01:16:49;99721.69;;;1.57;80.46
75455;BME280;64035;48.358;2.122;2022-12-15T01:18:08;99724.09;;;1.55;80.24
75455;BME280;64035;48.358;2.122;2022-12-15T01:19:27;99718.94;;;1.54;80.52
75455;BME280;64035;48.358;2.122;2022-12-15T01:21:57;99714.78;;;1.54;80.29
75455;BME280;64035;48.358;2.122;2022-12-15T01:22:57;99705.34;;;1.52;80.48
75455;BME280;64035;48.358;2.122;2022-12-15T01:23:57;99709.63;;;1.53;80.12
75455;BME280;64035;48.358;2.122;2022-12-15T01:24:58;99702.75;;;1.50;80.26
75455;BME280;64035;48.358;2.122;2022-12-15T01:25:58;99706.03;;;1.49;80.27
75455;BME280;64035;48.358;2.122;2022-12-15T01:26:59;99710.38;;;1.52;80.64
75455;BME280;64035;48.358;2.122;2022-12-15T01:27:59;99706.03;;;1.49;79.97
75455;BME280;64035;48.358;2.122;2022-12-15T01:28:59;99707.66;;;1.49;80.14
75455;BME280;64035;48.358;2.122;2022-12-15T01:30:00;99707.66;;;1.49;80.26
75455;BME280;64035;48.358;2.122;2022-12-15T01:31:00;99700.00;;;1.47;80.23
75455;BME280;64035;48.358;2.122;2022-12-15T01:32:01;99696.59;;;1.47;80.31
75455;BME280;64035;48.358;2.122;2022-12-15T01:33:04;99689.78;;;1.46;80.28
75455;BME280;64035;48.358;2.122;2022-12-15T01:34:04;99696.59;;;1.47;80.35
75455;BME280;64035;48.358;2.122;2022-12-15T01:35:06;99682.03;;;1.43;80.29
75455;BME280;64035;48.358;2.122;2022-12-15T01:36:06;99677.75;;;1.42;80.32
75455;BME280;64035;48.358;2.122;2022-12-15T01:37:07;99680.38;;;1.43;80.00
75455;BME280;64035;48.358;2.122;2022-12-15T01:38:08;99682.03;;;1.43;80.14
75455;BME280;64035;48.358;2.122;2022-12-15T01:39:08;99678.50;;;1.41;79.67
75455;BME280;64035;48.358;2.122;2022-12-15T01:40:15;99672.59;;;1.40;80.23
75455;BME280;64035;48.358;2.122;2022-12-15T01:41:35;99678.38;;;1.39;79.87
75455;BME280;64035;48.358;2.122;2022-12-15T01:42:36;99682.56;;;1.39;80.13
75455;BME280;64035;48.358;2.122;2022-12-15T01:43:38;99682.44;;;1.37;79.97
75455;BME280;64035;48.358;2.122;2022-12-15T01:44:39;99683.31;;;1.38;79.88
75455;BME280;64035;48.358;2.122;2022-12-15T01:46:54;99680.59;;;1.35;79.71
75455;BME280;64035;48.358;2.122;2022-12-15T01:48:04;99679.41;;;1.30;79.43
75455;BME280;64035;48.358;2.122;2022-12-15T01:49:19;99689.69;;;1.33;79.50
75455;BME280;64035;48.358;2.122;2022-12-15T01:50:21;99692.97;;;1.32;80.13
75455;BME280;64035;48.358;2.122;2022-12-15T01:51:37;99691.22;;;1.31;79.56
75455;BME280;64035;48.358;2.122;2022-12-15T01:52:39;99693.63;;;1.29;79.51
75455;BME280;64035;48.358;2.122;2022-12-15T01:53:52;99689.25;;;1.27;79.43
75455;BME280;64035;48.358;2.122;2022-12-15T01:54:56;99690.78;;;1.25;78.97
75455;BME280;64035;48.358;2.122;2022-12-15T01:55:58;99700.09;;;1.26;79.60
75455;BME280;64035;48.358;2.122;2022-12-15T01:57:02;99696.50;;;1.22;79.22
75455;BME280;64035;48.358;2.122;2022-12-15T01:58:05;99707.22;;;1.20;78.91
75455;BME280;64035;48.358;2.122;2022-12-15T01:59:10;99705.34;;;1.17;78.64
75455;BME280;64035;48.358;2.122;2022-12-15T02:00:12;99706.66;;;1.12;79.25
75455;BME280;64035;48.358;2.122;2022-12-15T02:01:13;99705.66;;;1.10;79.13
75455;BME280;64035;48.358;2.122;2022-12-15T02:02:14;99711.47;;;1.09;79.31
75455;BME280;64035;48.358;2.122;2022-12-15T02:03:15;99709.06;;;1.10;79.44
75455;BME280;64035;48.358;2.122;2022-12-15T02:04:17;99714.09;;;1.10;79.49
75455;BME280;64035;48.358;2.122;2022-12-15T02:05:19;99707.09;;;1.06;79.33
75455;BME280;64035;48.358;2.122;2022-12-15T02:06:21;99717.38;;;1.09;79.38
75455;BME280;64035;48.358;2.122;2022-12-15T02:07:22;99713.09;;;1.08;79.37
75455;BME280;64035;48.358;2.122;2022-12-15T02:08:22;99716.94;;;1.03;79.19
75455;BME280;64035;48.358;2.122;2022-12-15T02:09:25;99718.81;;;1.06;79.38
75455;BME280;64035;48.358;2.122;2022-12-15T02:10:33;99711.88;;;1.03;79.42
75455;BME280;64035;48.358;2.122;2022-12-15T02:14:44;99714.09;;;0.99;79.28
75455;BME280;64035;48.358;2.122;2022-12-15T02:15:50;99706.41;;;0.97;79.20
75455;BME280;64035;48.358;2.122;2022-12-15T02:17:27;99709.69;;;0.96;79.31
75455;BME280;64035;48.358;2.122;2022-12-15T02:18:42;99701.03;;;0.93;78.63
75455;BME280;64035;48.358;2.122;2022-12-15T02:28:12;99692.00;;;0.73;79.50
75455;BME280;64035;48.358;2.122;2022-12-15T02:30:43;99690.16;;;0.70;79.98
75455;BME280;64035;48.358;2.122;2022-12-15T02:32:12;99694.31;;;0.70;79.66
75455;BME280;64035;48.358;2.122;2022-12-15T02:33:23;99691.34;;;0.64;79.59
75455;BME280;64035;48.358;2.122;2022-12-15T02:34:37;99693.72;;;0.62;79.52
75455;BME280;64035;48.358;2.122;2022-12-15T02:37:07;99704.22;;;0.57;79.08
75455;BME280;64035;48.358;2.122;2022-12-15T02:38:09;99697.31;;;0.54;79.19
75455;BME280;64035;48.358;2.122;2022-12-15T02:39:17;99688.75;;;0.52;80.00
75455;BME280;64035;48.358;2.122;2022-12-15T02:40:17;99690.53;;;0.53;80.13
75455;BME280;64035;48.358;2.122;2022-12-15T02:41:38;99690.41;;;0.52;79.68
75455;BME280;64035;48.358;2.122;2022-12-15T02:42:43;99690.53;;;0.53;79.64
75455;BME280;64035;48.358;2.122;2022-12-15T02:43:44;99691.16;;;0.51;79.42
75455;BME280;64035;48.358;2.122;2022-12-15T02:44:50;99708.03;;;0.52;79.97
75455;BME280;64035;48.358;2.122;2022-12-15T02:46:19;99703.88;;;0.52;80.19
75455;BME280;64035;48.358;2.122;2022-12-15T02:48:37;99698.19;;;0.55;80.10
75455;BME280;64035;48.358;2.122;2022-12-15T02:52:41;99695.69;;;0.55;79.52
75455;BME280;64035;48.358;2.122;2022-12-15T02:55:17;99696.19;;;0.51;79.64
75455;BME280;64035;48.358;2.122;2022-12-15T02:56:49;99695.34;;;0.50;79.82
75455;BME280;64035;48.358;2.122;2022-12-15T02:58:05;99697.06;;;0.51;79.62
75455;BME280;64035;48.358;2.122;2022-12-15T02:59:31;99701.22;;;0.51;79.59
75455;BME280;64035;48.358;2.122;2022-12-15T03:00:41;99699.50;;;0.50;79.80
75455;BME280;64035;48.358;2.122;2022-12-15T03:01:54;99700.25;;;0.49;79.73
75455;BME280;64035;48.358;2.122;2022-12-15T03:02:56;99711.09;;;0.48;79.36
75455;BME280;64035;48.358;2.122;2022-12-15T03:03:58;99710.44;;;0.50;79.35
75455;BME280;64035;48.358;2.122;2022-12-15T03:05:01;99710.44;;;0.50;79.56
75455;BME280;64035;48.358;2.122;2022-12-15T03:06:02;99703.66;;;0.49;79.57
75455;BME280;64035;48.358;2.122;2022-12-15T03:07:07;99691.38;;;0.42;79.65
75455;BME280;64035;48.358;2.122;2022-12-15T03:08:08;99701.13;;;0.49;80.00
75455;BME280;64035;48.358;2.122;2022-12-15T03:09:08;99696.50;;;0.44;79.74
75455;BME280;64035;48.358;2.122;2022-12-15T03:10:11;99702.53;;;0.46;79.71
75455;BME280;64035;48.358;2.122;2022-12-15T03:11:12;99694.97;;;0.46;79.64
75455;BME280;64035;48.358;2.122;2022-12-15T03:12:12;99685.47;;;0.42;80.12
75455;BME280;64035;48.358;2.122;2022-12-15T03:13:12;99694.09;;;0.45;79.29
75455;BME280;64035;48.358;2.122;2022-12-15T03:14:13;99695.84;;;0.46;80.34
75455;BME280;64035;48.358;2.122;2022-12-15T03:15:13;99692.25;;;0.43;80.12
75455;BME280;64035;48.358;2.122;2022-12-15T03:16:14;99701.53;;;0.44;79.67
75455;BME280;64035;48.358;2.122;2022-12-15T03:17:14;99696.28;;;0.41;79.10
75455;BME280;64035;48.358;2.122;2022-12-15T03:18:15;99697.91;;;0.40;79.66
75455;BME280;64035;48.358;2.122;2022-12-15T03:19:15;99696.91;;;0.38;79.73
75455;BME280;64035;48.358;2.122;2022-12-15T03:20:15;99695.94;;;0.36;79.57
75455;BME280;64035;48.358;2.122;2022-12-15T03:21:16;99689.91;;;0.34;79.90
75455;BME280;64035;48.358;2.122;2022-12-15T03:22:17;99691.53;;;0.33;80.26
75455;BME280;64035;48.358;2.122;2022-12-15T03:23:17;99680.34;;;0.30;80.11
75455;BME280;64035;48.358;2.122;2022-12-15T03:24:18;99690.03;;;0.35;80.32
75455;BME280;64035;48.358;2.122;2022-12-15T03:25:18;99685.22;;;0.38;80.33
75455;BME280;64035;48.358;2.122;2022-12-15T03:26:18;99686.09;;;0.39;80.47
75455;BME280;64035;48.358;2.122;2022-12-15T03:27:19;99690.50;;;0.42;80.15
75455;BME280;64035;48.358;2.122;2022-12-15T03:28:19;99702.41;;;0.44;79.94
75455;BME280;64035;48.358;2.122;2022-12-15T03:29:22;99702.41;;;0.44;80.08
75455;BME280;64035;48.358;2.122;2022-12-15T03:30:23;99707.06;;;0.50;79.89
75455;BME280;64035;48.358;2.122;2022-12-15T03:31:23;99700.88;;;0.46;79.96
75455;BME280;64035;48.358;2.122;2022-12-15T03:32:24;99706.16;;;0.49;80.12
75455;BME280;64035;48.358;2.122;2022-12-15T03:33:24;99715.47;;;0.50;79.57
75455;BME280;64035;48.358;2.122;2022-12-15T03:34:24;99712.09;;;0.50;79.80
75455;BME280;64035;48.358;2.122;2022-12-15T03:35:25;99714.59;;;0.50;79.82
75455;BME280;64035;48.358;2.122;2022-12-15T03:36:25;99717.13;;;0.50;79.83
75455;BME280;64035;48.358;2.122;2022-12-15T03:37:26;99718.09;;;0.52;79.77
75455;BME280;64035;48.358;2.122;2022-12-15T03:38:26;99714.59;;;0.50;79.70
75455;BME280;64035;48.358;2.122;2022-12-15T03:39:27;99706.81;;;0.47;79.31
75455;BME280;64035;48.358;2.122;2022-12-15T03:40:27;99705.28;;;0.49;80.53
75455;BME280;64035;48.358;2.122;2022-12-15T03:41:28;99694.97;;;0.46;80.03
75455;BME280;64035;48.358;2.122;2022-12-15T03:42:28;99694.09;;;0.45;80.01
75455;BME280;64035;48.358;2.122;2022-12-15T03:43:47;99698.03;;;0.42;79.44
75455;BME280;64035;48.358;2.122;2022-12-15T03:44:47;99701.53;;;0.44;79.90
75455;BME280;64035;48.358;2.122;2022-12-15T03:45:48;99703.94;;;0.42;79.71
75455;BME280;64035;48.358;2.122;2022-12-15T03:46:48;99719.50;;;0.48;80.15
75455;BME280;64035;48.358;2.122;2022-12-15T03:47:49;99713.34;;;0.45;80.00
75455;BME280;64035;48.358;2.122;2022-12-15T03:48:51;99714.47;;;0.48;79.69
75455;BME280;64035;48.358;2.122;2022-12-15T03:49:51;99720.91;;;0.45;79.66
75455;BME280;64035;48.358;2.122;2022-12-15T03:50:52;99713.13;;;0.42;79.47
75455;BME280;64035;48.358;2.122;2022-12-15T03:51:52;99716.53;;;0.42;79.96
75455;BME280;64035;48.358;2.122;2022-12-15T03:53:03;99712.38;;;0.43;80.24
75455;BME280;64035;48.358;2.122;2022-12-15T03:54:03;99720.16;;;0.46;79.85
75455;BME280;64035;48.358;2.122;2022-12-15T03:55:05;99708.31;;;0.45;79.87
75455;BME280;64035;48.358;2.122;2022-12-15T03:56:07;99700.88;;;0.46;80.26
75455;BME280;64035;48.358;2.122;2022-12-15T03:57:07;99698.91;;;0.42;80.29
75455;BME280;64035;48.358;2.122;2022-12-15T03:58:08;99692.59;;;0.47;80.21
75455;BME280;64035;48.358;2.122;2022-12-15T03:59:08;99687.22;;;0.43;79.53
75455;BME280;64035;48.358;2.122;2022-12-15T04:00:10;99678.53;;;0.39;78.79
75455;BME280;64035;48.358;2.122;2022-12-15T04:02:20;99672.72;;;0.28;79.87
75455;BME280;64035;48.358;2.122;2022-12-15T04:03:20;99676.06;;;0.29;80.08
75455;BME280;64035;48.358;2.122;2022-12-15T04:04:21;99680.03;;;0.25;79.80
75455;BME280;64035;48.358;2.122;2022-12-15T04:05:30;99676.88;;;0.28;80.07
75455;BME280;64035;48.358;2.122;2022-12-15T04:06:31;99677.50;;;0.25;80.33
75455;BME280;64035;48.358;2.122;2022-12-15T04:07:31;99678.38;;;0.26;80.41
75455;BME280;64035;48.358;2.122;2022-12-15T04:08:32;99671.72;;;0.26;80.05
75455;BME280;64035;48.358;2.122;2022-12-15T04:09:32;99665.69;;;0.24;80.35
75455;BME280;64035;48.358;2.122;2022-12-15T04:10:33;99666.00;;;0.29;80.84
75455;BME280;64035;48.358;2.122;2022-12-15T04:11:34;99674.56;;;0.31;80.81
75455;BME280;64035;48.358;2.122;2022-12-15T04:12:34;99670.28;;;0.30;80.20
75455;BME280;64035;48.358;2.122;2022-12-15T04:13:38;99669.66;;;0.32;80.63
75455;BME280;64035;48.358;2.122;2022-12-15T04:14:39;99681.09;;;0.29;80.17
75455;BME280;64035;48.358;2.122;2022-12-15T04:15:41;99670.97;;;0.27;79.87
75455;BME280;64035;48.358;2.122;2022-12-15T04:16:42;99684.88;;;0.34;79.99
75455;BME280;64035;48.358;2.122;2022-12-15T04:17:42;99679.38;;;0.28;79.36
75455;BME280;64035;48.358;2.122;2022-12-15T04:18:42;99689.53;;;0.29;79.96
75455;BME280;64035;48.358;2.122;2022-12-15T04:19:43;99692.31;;;0.32;79.71
75455;BME280;64035;48.358;2.122;2022-12-15T04:21:02;99688.66;;;0.29;80.05
75455;BME280;64035;48.358;2.122;2022-12-15T04:22:02;99690.34;;;0.28;79.66
75455;BME280;64035;48.358;2.122;2022-12-15T04:23:02;99694.38;;;0.26;79.86
75455;BME280;64035;48.358;2.122;2022-12-15T04:24:03;99688.31;;;0.24;80.13
75455;BME280;64035;48.358;2.122;2022-12-15T04:25:24;99691.97;;;0.28;80.35
75455;BME280;64035;48.358;2.122;2022-12-15T04:26:43;99693.69;;;0.29;80.50
75455;BME280;64035;48.358;2.122;2022-12-15T04:28:03;99702.72;;;0.37;80.37
75455;BME280;64035;48.358;2.122;2022-12-15T04:29:22;99697.28;;;0.43;80.48
75455;BME280;64035;48.358;2.122;2022-12-15T04:30:45;99700.78;;;0.45;79.86
75455;BME280;64035;48.358;2.122;2022-12-15T04:32:05;99690.50;;;0.42;79.85
75455;BME280;64035;48.358;2.122;2022-12-15T04:33:24;99706.69;;;0.45;79.88
75455;BME280;64035;48.358;2.122;2022-12-15T04:34:43;99699.13;;;0.45;80.07
75455;BME280;64035;48.358;2.122;2022-12-15T04:36:02;99708.69;;;0.49;79.70
75455;BME280;64035;48.358;2.122;2022-12-15T04:37:21;99715.56;;;0.52;79.84
75455;BME280;64035;48.358;2.122;2022-12-15T04:38:40;99712.09;;;0.50;79.49
75455;BME280;64035;48.358;2.122;2022-12-15T04:39:59;99715.56;;;0.52;79.51
75455;BME280;64035;48.358;2.122;2022-12-15T04:41:20;99724.13;;;0.54;80.04
75455;BME280;64035;48.358;2.122;2022-12-15T04:42:42;99724.13;;;0.54;79.77
75455;BME280;64035;48.358;2.122;2022-12-15T04:44:03;99727.66;;;0.56;79.58
75455;BME280;64035;48.358;2.122;2022-12-15T04:45:23;99721.50;;;0.52;79.65
75455;BME280;64035;48.358;2.122;2022-12-15T04:46:42;99722.50;;;0.54;80.04
75455;BME280;64035;48.358;2.122;2022-12-15T04:48:02;99730.69;;;0.52;79.16
75455;BME280;64035;48.358;2.122;2022-12-15T04:49:21;99743.25;;;0.52;78.82
75455;BME280;64035;48.358;2.122;2022-12-15T04:50:40;99744.03;;;0.51;79.41
75455;BME280;64035;48.358;2.122;2022-12-15T04:51:59;99744.03;;;0.51;79.76
75455;BME280;64035;48.358;2.122;2022-12-15T04:53:18;99749.31;;;0.54;80.14
75455;BME280;64035;48.358;2.122;2022-12-15T04:54:37;99744.16;;;0.52;79.89
75455;BME280;64035;48.358;2.122;2022-12-15T04:55:57;99751.94;;;0.55;79.49
75455;BME280;64035;48.358;2.122;2022-12-15T04:57:15;99736.47;;;0.51;79.25
75455;BME280;64035;48.358;2.122;2022-12-15T04:58:34;99733.88;;;0.49;79.09
75455;BME280;64035;48.358;2.122;2022-12-15T04:59:53;99731.97;;;0.47;79.01
75455;BME280;64035;48.358;2.122;2022-12-15T05:01:12;99722.53;;;0.44;79.15
75455;BME280;64035;48.358;2.122;2022-12-15T05:02:31;99725.06;;;0.44;78.99
75455;BME280;64035;48.358;2.122;2022-12-15T05:03:50;99726.69;;;0.44;78.88
75455;BME280;64035;48.358;2.122;2022-12-15T05:05:09;99724.09;;;0.42;79.05
75455;BME280;64035;48.358;2.122;2022-12-15T05:06:28;99722.09;;;0.38;78.35
75455;BME280;64035;48.358;2.122;2022-12-15T05:07:47;99720.88;;;0.33;78.90
75455;BME280;64035;48.358;2.122;2022-12-15T05:09:06;99715.72;;;0.31;78.87
75455;BME280;64035;48.358;2.122;2022-12-15T05:10:25;99718.22;;;0.31;78.99
75455;BME280;64035;48.358;2.122;2022-12-15T05:11:45;99718.84;;;0.29;78.31
75455;BME280;64035;48.358;2.122;2022-12-15T05:13:05;99714.63;;;0.28;79.32
75455;BME280;64035;48.358;2.122;2022-12-15T05:14:24;99716.00;;;0.24;79.39
75455;BME280;64035;48.358;2.122;2022-12-15T05:15:43;99704.94;;;0.22;79.21
75455;BME280;64035;48.358;2.122;2022-12-15T05:17:02;99715.13;;;0.24;78.97
75455;BME280;64035;48.358;2.122;2022-12-15T05:18:21;99716.75;;;0.23;79.00
75455;BME280;64035;48.358;2.122;2022-12-15T05:19:40;99705.72;;;0.21;78.90
75455;BME280;64035;48.358;2.122;2022-12-15T05:20:59;99707.22;;;0.19;78.63
75455;BME280;64035;48.358;2.122;2022-12-15T05:22:18;99707.00;;;0.16;78.98
75455;BME280;64035;48.358;2.122;2022-12-15T05:23:37;99693.81;;;0.09;78.49
75455;BME280;64035;48.358;2.122;2022-12-15T05:24:56;99703.88;;;0.09;78.98
75455;BME280;64035;48.358;2.122;2022-12-15T05:26:15;99702.91;;;0.07;78.66
75455;BME280;64035;48.358;2.122;2022-12-15T05:27:34;99706.53;;;0.10;79.26
75455;BME280;64035;48.358;2.122;2022-12-15T05:28:53;99699.28;;;0.03;78.88
75455;BME280;64035;48.358;2.122;2022-12-15T05:30:12;99693.34;;;0.03;78.64
75455;BME280;64035;48.358;2.122;2022-12-15T05:31:31;99691.59;;;0.02;79.15
75455;BME280;64035;48.358;2.122;2022-12-15T05:32:51;99679.69;;;-0.01;78.87
75455;BME280;64035;48.358;2.122;2022-12-15T05:33:55;99682.28;;;0.00;78.71
75455;BME280;64035;48.358;2.122;2022-12-15T05:34:56;99673.66;;;-0.03;79.36
75455;BME280;64035;48.358;2.122;2022-12-15T05:35:56;99684.19;;;0.03;79.62
75455;BME280;64035;48.358;2.122;2022-12-15T05:36:58;99678.25;;;0.03;79.57
75455;BME280;64035;48.358;2.122;2022-12-15T05:37:59;99677.38;;;0.02;79.31
75455;BME280;64035;48.358;2.122;2022-12-15T05:38:59;99677.91;;;-0.02;79.01
75455;BME280;64035;48.358;2.122;2022-12-15T05:40:00;99680.31;;;-0.04;79.43
75455;BME280;64035;48.358;2.122;2022-12-15T05:41:00;99677.91;;;-0.02;79.13
75455;BME280;64035;48.358;2.122;2022-12-15T05:42:01;99680.66;;;0.01;79.83
75455;BME280;64035;48.358;2.122;2022-12-15T05:43:01;99672.47;;;0.04;80.31
75455;BME280;64035;48.358;2.122;2022-12-15T05:44:02;99672.72;;;0.07;79.50
75455;BME280;64035;48.358;2.122;2022-12-15T05:45:03;99669.22;;;0.05;79.70
75455;BME280;64035;48.358;2.122;2022-12-15T05:46:04;99676.97;;;0.08;79.56
75455;BME280;64035;48.358;2.122;2022-12-15T05:47:05;99668.66;;;0.09;79.21
75455;BME280;64035;48.358;2.122;2022-12-15T05:48:05;99677.22;;;0.11;79.69
75455;BME280;64035;48.358;2.122;2022-12-15T05:49:08;99673.47;;;0.06;79.40
75455;BME280;64035;48.358;2.122;2022-12-15T05:50:10;99681.16;;;0.07;79.30
75455;BME280;64035;48.358;2.122;2022-12-15T05:51:11;99668.44;;;0.06;79.91
75455;BME280;64035;48.358;2.122;2022-12-15T05:52:12;99679.84;;;0.12;79.65
75455;BME280;64035;48.358;2.122;2022-12-15T05:53:12;99681.25;;;0.09;79.48
75455;BME280;64035;48.358;2.122;2022-12-15T05:54:16;99684.75;;;0.11;79.86
75455;BME280;64035;48.358;2.122;2022-12-15T05:55:17;99684.75;;;0.11;79.42
75455;BME280;64035;48.358;2.122;2022-12-15T05:56:18;99686.72;;;0.15;80.54
75455;BME280;64035;48.358;2.122;2022-12-15T05:57:18;99690.25;;;0.17;79.97
75455;BME280;64035;48.358;2.122;2022-12-15T05:58:19;99683.59;;;0.17;80.21
75455;BME280;64035;48.358;2.122;2022-12-15T05:59:19;99682.06;;;0.19;79.44
75455;BME280;64035;48.358;2.122;2022-12-15T06:00:20;99684.22;;;0.15;79.12
75455;BME280;64035;48.358;2.122;2022-12-15T06:01:21;99677.47;;;0.14;78.91
75455;BME280;64035;48.358;2.122;2022-12-15T06:02:21;99675.44;;;0.10;79.13
75455;BME280;64035;48.358;2.122;2022-12-15T06:03:21;99674.44;;;0.08;79.30
75455;BME280;64035;48.358;2.122;2022-12-15T06:04:22;99684.13;;;0.13;78.77
75455;BME280;64035;48.358;2.122;2022-12-15T06:05:22;99670.41;;;0.10;79.32
75455;BME280;64035;48.358;2.122;2022-12-15T06:06:23;99677.34;;;0.12;79.48
75455;BME280;64035;48.358;2.122;2022-12-15T06:07:23;99663.53;;;0.07;79.56
75455;BME280;64035;48.358;2.122;2022-12-15T06:08:24;99674.16;;;0.15;79.47
75455;BME280;64035;48.358;2.122;2022-12-15T06:09:24;99679.31;;;0.16;79.68
75455;BME280;64035;48.358;2.122;2022-12-15T06:10:24;99659.72;;;0.12;79.72
75455;BME280;64035;48.358;2.122;2022-12-15T06:11:25;99663.13;;;0.13;79.82
75455;BME280;64035;48.358;2.122;2022-12-15T06:12:27;99666.59;;;0.15;79.50
75455;BME280;64035;48.358;2.122;2022-12-15T06:13:29;99674.41;;;0.18;79.20
75455;BME280;64035;48.358;2.122;2022-12-15T06:14:30;99661.50;;;0.13;79.46
75455;BME280;64035;48.358;2.122;2022-12-15T06:15:30;99666.72;;;0.16;79.64
75455;BME280;64035;48.358;2.122;2022-12-15T06:16:31;99664.97;;;0.15;79.28
75455;BME280;64035;48.358;2.122;2022-12-15T06:17:32;99672.66;;;0.17;78.69
75455;BME280;64035;48.358;2.122;2022-12-15T06:18:35;99673.41;;;0.16;78.74
75455;BME280;64035;48.358;2.122;2022-12-15T06:19:36;99664.38;;;0.08;78.75
75455;BME280;64035;48.358;2.122;2022-12-15T06:20:36;99673.19;;;0.13;78.95
75455;BME280;64035;48.358;2.122;2022-12-15T06:21:37;99672.94;;;0.10;79.21
75455;BME280;64035;48.358;2.122;2022-12-15T06:22:37;99676.22;;;0.09;79.25
75455;BME280;64035;48.358;2.122;2022-12-15T06:23:38;99682.25;;;0.11;79.18
75455;BME280;64035;48.358;2.122;2022-12-15T06:24:39;99675.25;;;0.07;78.80
75455;BME280;64035;48.358;2.122;2022-12-15T06:25:39;99681.16;;;0.07;78.65
75455;BME280;64035;48.358;2.122;2022-12-15T06:26:40;99676.13;;;0.07;79.44
75455;BME280;64035;48.358;2.122;2022-12-15T06:27:40;99678.09;;;0.11;79.40
75455;BME280;64035;48.358;2.122;2022-12-15T06:28:41;99666.81;;;0.06;79.30
75455;BME280;64035;48.358;2.122;2022-12-15T06:29:43;99674.69;;;0.11;79.19
75455;BME280;64035;48.358;2.122;2022-12-15T06:30:44;99669.34;;;0.06;79.21